sensor_id;sensor_type;location;lat;lon;timestamp;P1;durP1;ratioP1;P2;durP2;ratioP2
67986;SDS011;54767;53.800;15.956;2023-06-22T00:00:35;7.40;;;6.10;;
67986;SDS011;54767;53.800;15.956;2023-06-22T00:03:24;8.60;;;6.40;;
67986;SDS011;54767;53.800;15.956;2023-06-22T00:05:53;8.50;;;6.50;;
67986;SDS011;54767;53.800;15.956;2023-06-22T00:08:21;9.00;;;6.10;;
67986;SDS011;54767;53.800;15.956;2023-06-22T00:10:49;6.80;;;6.10;;
67986;SDS011;54767;53.800;15.956;2023-06-22T00:13:18;6.70;;;5.60;;
67986;SDS011;54767;53.800;15.956;2023-06-22T00:15:46;6.50;;;5.80;;
67986;SDS011;54767;53.800;15.956;2023-06-22T00:18:15;8.70;;;5.50;;
67986;SDS011;54767;53.800;15.956;2023-06-22T00:20:43;8.50;;;5.80;;
67986;SDS011;54767;53.800;15.956;2023-06-22T00:23:13;9.70;;;6.20;;
67986;SDS011;54767;53.800;15.956;2023-06-22T00:25:43;9.10;;;6.20;;
67986;SDS011;54767;53.800;15.956;2023-06-22T00:28:12;8.10;;;5.70;;
67986;SDS011;54767;53.800;15.956;2023-06-22T00:30:40;7.10;;;5.90;;
67986;SDS011;54767;53.800;15.956;2023-06-22T00:33:09;5.90;;;5.30;;
67986;SDS011;54767;53.800;15.956;2023-06-22T00:35:37;7.40;;;5.80;;
67986;SDS011;54767;53.800;15.956;2023-06-22T00:38:09;6.60;;;5.20;;
67986;SDS011;54767;53.800;15.956;2023-06-22T00:40:38;5.70;;;5.20;;
67986;SDS011;54767;53.800;15.956;2023-06-22T00:43:06;7.00;;;5.60;;
67986;SDS011;54767;53.800;15.956;2023-06-22T00:45:35;6.40;;;5.50;;
67986;SDS011;54767;53.800;15.956;2023-06-22T00:48:03;7.50;;;5.70;;
67986;SDS011;54767;53.800;15.956;2023-06-22T00:50:33;7.10;;;6.00;;
67986;SDS011;54767;53.800;15.956;2023-06-22T00:53:06;8.00;;;5.90;;
67986;SDS011;54767;53.800;15.956;2023-06-22T00:55:38;10.30;;;5.80;;
67986;SDS011;54767;53.800;15.956;2023-06-22T00:58:12;7.10;;;5.50;;
67986;SDS011;54767;53.800;15.956;2023-06-22T01:00:41;7.00;;;5.50;;
67986;SDS011;54767;53.800;15.956;2023-06-22T01:03:10;6.30;;;5.30;;
67986;SDS011;54767;53.800;15.956;2023-06-22T01:05:39;6.00;;;5.40;;
67986;SDS011;54767;53.800;15.956;2023-06-22T01:11:39;6.40;;;5.30;;
67986;SDS011;54767;53.800;15.956;2023-06-22T01:16:34;6.10;;;5.00;;
67986;SDS011;54767;53.800;15.956;2023-06-22T01:19:09;7.20;;;5.10;;
67986;SDS011;54767;53.800;15.956;2023-06-22T01:21:39;6.00;;;5.10;;
67986;SDS011;54767;53.800;15.956;2023-06-22T01:24:20;7.60;;;5.70;;
67986;SDS011;54767;53.800;15.956;2023-06-22T01:29:23;10.20;;;5.40;;
67986;SDS011;54767;53.800;15.956;2023-06-22T01:31:54;7.70;;;4.90;;
67986;SDS011;54767;53.800;15.956;2023-06-22T01:34:25;10.10;;;5.40;;
67986;SDS011;54767;53.800;15.956;2023-06-22T01:39:24;6.20;;;5.00;;
67986;SDS011;54767;53.800;15.956;2023-06-22T01:41:54;7.20;;;5.10;;
67986;SDS011;54767;53.800;15.956;2023-06-22T01:44:23;5.00;;;4.40;;
67986;SDS011;54767;53.800;15.956;2023-06-22T01:46:53;6.60;;;4.80;;
67986;SDS011;54767;53.800;15.956;2023-06-22T01:49:23;5.90;;;4.80;;
67986;SDS011;54767;53.800;15.956;2023-06-22T01:51:51;5.80;;;4.70;;
67986;SDS011;54767;53.800;15.956;2023-06-22T01:54:19;8.50;;;4.90;;
67986;SDS011;54767;53.800;15.956;2023-06-22T01:56:48;6.00;;;5.40;;
67986;SDS011;54767;53.800;15.956;2023-06-22T01:59:19;8.10;;;4.60;;
67986;SDS011;54767;53.800;15.956;2023-06-22T02:01:57;6.90;;;4.90;;
67986;SDS011;54767;53.800;15.956;2023-06-22T02:04:37;6.90;;;4.80;;
67986;SDS011;54767;53.800;15.956;2023-06-22T02:07:09;6.70;;;4.90;;
67986;SDS011;54767;53.800;15.956;2023-06-22T02:09:41;6.80;;;5.10;;
67986;SDS011;54767;53.800;15.956;2023-06-22T02:12:12;5.60;;;4.60;;
67986;SDS011;54767;53.800;15.956;2023-06-22T02:14:45;6.00;;;5.00;;
67986;SDS011;54767;53.800;15.956;2023-06-22T02:17:16;6.10;;;4.90;;
67986;SDS011;54767;53.800;15.956;2023-06-22T02:19:45;7.30;;;5.40;;
67986;SDS011;54767;53.800;15.956;2023-06-22T02:22:14;5.70;;;5.10;;
67986;SDS011;54767;53.800;15.956;2023-06-22T02:24:42;7.20;;;5.30;;
67986;SDS011;54767;53.800;15.956;2023-06-22T02:27:11;9.10;;;5.30;;
67986;SDS011;54767;53.800;15.956;2023-06-22T02:29:40;7.60;;;5.20;;
67986;SDS011;54767;53.800;15.956;2023-06-22T02:32:08;6.80;;;5.00;;
67986;SDS011;54767;53.800;15.956;2023-06-22T02:34:37;6.30;;;4.80;;
67986;SDS011;54767;53.800;15.956;2023-06-22T02:37:05;6.40;;;5.10;;
67986;SDS011;54767;53.800;15.956;2023-06-22T02:39:34;7.40;;;5.40;;
67986;SDS011;54767;53.800;15.956;2023-06-22T02:42:03;6.60;;;5.40;;
67986;SDS011;54767;53.800;15.956;2023-06-22T02:44:31;8.30;;;5.70;;
67986;SDS011;54767;53.800;15.956;2023-06-22T02:47:00;6.40;;;5.70;;
67986;SDS011;54767;53.800;15.956;2023-06-22T02:49:28;9.00;;;5.70;;
67986;SDS011;54767;53.800;15.956;2023-06-22T02:51:57;7.10;;;5.40;;
67986;SDS011;54767;53.800;15.956;2023-06-22T02:54:25;9.40;;;5.60;;
67986;SDS011;54767;53.800;15.956;2023-06-22T02:56:53;8.80;;;5.20;;
67986;SDS011;54767;53.800;15.956;2023-06-22T02:59:22;6.40;;;4.90;;
67986;SDS011;54767;53.800;15.956;2023-06-22T03:01:52;9.10;;;5.30;;
67986;SDS011;54767;53.800;15.956;2023-06-22T03:04:21;7.10;;;5.20;;
67986;SDS011;54767;53.800;15.956;2023-06-22T03:06:49;7.10;;;5.10;;
67986;SDS011;54767;53.800;15.956;2023-06-22T03:09:19;7.10;;;5.10;;
67986;SDS011;54767;53.800;15.956;2023-06-22T03:11:48;8.60;;;4.90;;
67986;SDS011;54767;53.800;15.956;2023-06-22T03:14:16;5.40;;;4.80;;
67986;SDS011;54767;53.800;15.956;2023-06-22T03:16:45;7.80;;;5.30;;
67986;SDS011;54767;53.800;15.956;2023-06-22T03:19:13;7.90;;;5.20;;
67986;SDS011;54767;53.800;15.956;2023-06-22T03:21:41;8.40;;;4.80;;
67986;SDS011;54767;53.800;15.956;2023-06-22T03:24:10;6.60;;;4.60;;
67986;SDS011;54767;53.800;15.956;2023-06-22T03:26:38;5.80;;;4.70;;
67986;SDS011;54767;53.800;15.956;2023-06-22T03:29:06;5.30;;;4.70;;
67986;SDS011;54767;53.800;15.956;2023-06-22T03:31:35;5.00;;;4.40;;
67986;SDS011;54767;53.800;15.956;2023-06-22T03:34:03;6.50;;;4.60;;
67986;SDS011;54767;53.800;15.956;2023-06-22T03:36:32;9.20;;;5.30;;
67986;SDS011;54767;53.800;15.956;2023-06-22T03:39:00;5.80;;;5.10;;
67986;SDS011;54767;53.800;15.956;2023-06-22T03:41:29;5.60;;;5.00;;
67986;SDS011;54767;53.800;15.956;2023-06-22T03:43:57;5.90;;;5.30;;
67986;SDS011;54767;53.800;15.956;2023-06-22T03:46:25;7.40;;;5.80;;
67986;SDS011;54767;53.800;15.956;2023-06-22T03:48:54;5.80;;;5.20;;
67986;SDS011;54767;53.800;15.956;2023-06-22T03:51:22;7.60;;;5.50;;
67986;SDS011;54767;53.800;15.956;2023-06-22T03:53:50;6.70;;;5.70;;
67986;SDS011;54767;53.800;15.956;2023-06-22T03:56:18;7.80;;;6.20;;
67986;SDS011;54767;53.800;15.956;2023-06-22T03:58:48;7.70;;;6.00;;
67986;SDS011;54767;53.800;15.956;2023-06-22T04:01:17;9.00;;;5.80;;
67986;SDS011;54767;53.800;15.956;2023-06-22T04:03:45;9.70;;;5.90;;
67986;SDS011;54767;53.800;15.956;2023-06-22T04:06:17;8.40;;;5.80;;
67986;SDS011;54767;53.800;15.956;2023-06-22T04:08:45;8.40;;;6.20;;
67986;SDS011;54767;53.800;15.956;2023-06-22T04:11:17;8.40;;;6.20;;
67986;SDS011;54767;53.800;15.956;2023-06-22T04:13:46;9.50;;;6.50;;
67986;SDS011;54767;53.800;15.956;2023-06-22T04:16:15;9.40;;;6.60;;
67986;SDS011;54767;53.800;15.956;2023-06-22T04:18:43;10.50;;;6.80;;
67986;SDS011;54767;53.800;15.956;2023-06-22T04:21:12;8.90;;;6.90;;
67986;SDS011;54767;53.800;15.956;2023-06-22T04:23:41;10.10;;;7.00;;
67986;SDS011;54767;53.800;15.956;2023-06-22T04:28:39;11.40;;;7.50;;
67986;SDS011;54767;53.800;15.956;2023-06-22T04:31:08;11.60;;;8.20;;
67986;SDS011;54767;53.800;15.956;2023-06-22T04:33:36;10.70;;;7.40;;
67986;SDS011;54767;53.800;15.956;2023-06-22T04:36:06;8.30;;;6.60;;
67986;SDS011;54767;53.800;15.956;2023-06-22T04:38:34;9.70;;;6.80;;
67986;SDS011;54767;53.800;15.956;2023-06-22T04:41:02;10.50;;;6.90;;
67986;SDS011;54767;53.800;15.956;2023-06-22T04:43:33;10.70;;;7.70;;
67986;SDS011;54767;53.800;15.956;2023-06-22T04:46:02;8.40;;;6.70;;
67986;SDS011;54767;53.800;15.956;2023-06-22T04:48:31;8.10;;;6.70;;
67986;SDS011;54767;53.800;15.956;2023-06-22T04:51:03;9.60;;;6.50;;
67986;SDS011;54767;53.800;15.956;2023-06-22T04:53:32;8.60;;;6.30;;
67986;SDS011;54767;53.800;15.956;2023-06-22T04:56:01;10.60;;;6.40;;
67986;SDS011;54767;53.800;15.956;2023-06-22T04:58:32;8.60;;;6.40;;
67986;SDS011;54767;53.800;15.956;2023-06-22T05:01:00;8.90;;;6.50;;
67986;SDS011;54767;53.800;15.956;2023-06-22T05:03:29;10.50;;;6.90;;
67986;SDS011;54767;53.800;15.956;2023-06-22T05:05:57;7.30;;;6.10;;
67986;SDS011;54767;53.800;15.956;2023-06-22T05:08:25;8.80;;;6.70;;
67986;SDS011;54767;53.800;15.956;2023-06-22T05:10:54;8.80;;;6.50;;
67986;SDS011;54767;53.800;15.956;2023-06-22T05:13:33;10.00;;;6.80;;
67986;SDS011;54767;53.800;15.956;2023-06-22T05:16:02;11.10;;;6.70;;
67986;SDS011;54767;53.800;15.956;2023-06-22T05:18:31;8.80;;;6.10;;
67986;SDS011;54767;53.800;15.956;2023-06-22T05:21:00;9.30;;;6.20;;
67986;SDS011;54767;53.800;15.956;2023-06-22T05:23:29;8.30;;;6.20;;
67986;SDS011;54767;53.800;15.956;2023-06-22T05:25:57;8.50;;;6.20;;
67986;SDS011;54767;53.800;15.956;2023-06-22T05:28:26;7.80;;;6.20;;
67986;SDS011;54767;53.800;15.956;2023-06-22T05:30:54;7.40;;;5.90;;
67986;SDS011;54767;53.800;15.956;2023-06-22T05:33:23;9.80;;;5.70;;
67986;SDS011;54767;53.800;15.956;2023-06-22T05:35:51;9.80;;;5.90;;
67986;SDS011;54767;53.800;15.956;2023-06-22T05:38:20;9.50;;;5.50;;
67986;SDS011;54767;53.800;15.956;2023-06-22T05:40:48;7.90;;;5.10;;
67986;SDS011;54767;53.800;15.956;2023-06-22T05:43:16;8.40;;;4.90;;
67986;SDS011;54767;53.800;15.956;2023-06-22T05:45:44;8.60;;;5.30;;
67986;SDS011;54767;53.800;15.956;2023-06-22T05:48:13;5.70;;;5.10;;
67986;SDS011;54767;53.800;15.956;2023-06-22T05:50:41;6.40;;;5.00;;
67986;SDS011;54767;53.800;15.956;2023-06-22T05:53:10;6.20;;;4.90;;
67986;SDS011;54767;53.800;15.956;2023-06-22T05:55:39;7.40;;;5.80;;
67986;SDS011;54767;53.800;15.956;2023-06-22T05:58:07;7.80;;;5.30;;
67986;SDS011;54767;53.800;15.956;2023-06-22T06:00:36;6.30;;;5.30;;
67986;SDS011;54767;53.800;15.956;2023-06-22T06:03:05;5.40;;;4.80;;
67986;SDS011;54767;53.800;15.956;2023-06-22T06:05:35;7.10;;;5.10;;
67986;SDS011;54767;53.800;15.956;2023-06-22T06:08:04;7.50;;;4.90;;
67986;SDS011;54767;53.800;15.956;2023-06-22T06:10:34;7.80;;;5.10;;
67986;SDS011;54767;53.800;15.956;2023-06-22T06:13:03;7.90;;;4.90;;
67986;SDS011;54767;53.800;15.956;2023-06-22T06:15:32;9.00;;;4.80;;
67986;SDS011;54767;53.800;15.956;2023-06-22T06:18:01;6.40;;;4.70;;
67986;SDS011;54767;53.800;15.956;2023-06-22T06:20:33;7.20;;;4.80;;
67986;SDS011;54767;53.800;15.956;2023-06-22T06:23:02;4.90;;;4.40;;
67986;SDS011;54767;53.800;15.956;2023-06-22T06:25:30;4.00;;;3.70;;
67986;SDS011;54767;53.800;15.956;2023-06-22T06:27:58;5.10;;;3.40;;
67986;SDS011;54767;53.800;15.956;2023-06-22T06:30:27;6.80;;;3.00;;
67986;SDS011;54767;53.800;15.956;2023-06-22T06:32:56;5.70;;;3.20;;
67986;SDS011;54767;53.800;15.956;2023-06-22T06:35:24;5.30;;;3.40;;
67986;SDS011;54767;53.800;15.956;2023-06-22T06:37:54;5.30;;;3.40;;
67986;SDS011;54767;53.800;15.956;2023-06-22T06:40:22;4.70;;;3.30;;
67986;SDS011;54767;53.800;15.956;2023-06-22T06:42:50;5.30;;;3.20;;
67986;SDS011;54767;53.800;15.956;2023-06-22T06:45:19;4.60;;;3.20;;
67986;SDS011;54767;53.800;15.956;2023-06-22T06:47:51;4.90;;;3.30;;
67986;SDS011;54767;53.800;15.956;2023-06-22T06:50:20;7.90;;;3.80;;
67986;SDS011;54767;53.800;15.956;2023-06-22T06:52:49;4.90;;;3.40;;
67986;SDS011;54767;53.800;15.956;2023-06-22T06:55:18;5.50;;;3.20;;
67986;SDS011;54767;53.800;15.956;2023-06-22T06:57:47;3.40;;;3.10;;
67986;SDS011;54767;53.800;15.956;2023-06-22T07:00:16;4.10;;;3.30;;
67986;SDS011;54767;53.800;15.956;2023-06-22T07:02:46;5.30;;;3.00;;
67986;SDS011;54767;53.800;15.956;2023-06-22T07:05:16;4.60;;;3.40;;
67986;SDS011;54767;53.800;15.956;2023-06-22T07:07:45;5.40;;;3.80;;
67986;SDS011;54767;53.800;15.956;2023-06-22T07:10:13;5.10;;;3.40;;
67986;SDS011;54767;53.800;15.956;2023-06-22T07:12:43;4.00;;;3.30;;
67986;SDS011;54767;53.800;15.956;2023-06-22T07:15:12;4.90;;;3.20;;
67986;SDS011;54767;53.800;15.956;2023-06-22T07:17:41;3.50;;;3.20;;
67986;SDS011;54767;53.800;15.956;2023-06-22T07:20:10;3.80;;;3.30;;
67986;SDS011;54767;53.800;15.956;2023-06-22T07:22:41;4.30;;;3.30;;
67986;SDS011;54767;53.800;15.956;2023-06-22T07:25:12;4.80;;;3.30;;
67986;SDS011;54767;53.800;15.956;2023-06-22T07:28:06;4.90;;;3.60;;
67986;SDS011;54767;53.800;15.956;2023-06-22T07:30:35;4.80;;;3.50;;
67986;SDS011;54767;53.800;15.956;2023-06-22T07:33:03;5.40;;;3.50;;
67986;SDS011;54767;53.800;15.956;2023-06-22T07:35:38;6.50;;;3.70;;
67986;SDS011;54767;53.800;15.956;2023-06-22T07:38:07;3.90;;;3.20;;
67986;SDS011;54767;53.800;15.956;2023-06-22T07:40:37;4.30;;;3.40;;
67986;SDS011;54767;53.800;15.956;2023-06-22T07:43:05;5.40;;;3.50;;
67986;SDS011;54767;53.800;15.956;2023-06-22T07:45:34;4.20;;;3.00;;
67986;SDS011;54767;53.800;15.956;2023-06-22T07:48:03;5.00;;;3.10;;
67986;SDS011;54767;53.800;15.956;2023-06-22T07:50:31;4.50;;;3.30;;
67986;SDS011;54767;53.800;15.956;2023-06-22T07:53:00;4.90;;;3.10;;
67986;SDS011;54767;53.800;15.956;2023-06-22T07:55:28;4.20;;;3.00;;
67986;SDS011;54767;53.800;15.956;2023-06-22T07:57:57;3.90;;;3.00;;
67986;SDS011;54767;53.800;15.956;2023-06-22T08:00:26;4.00;;;3.50;;
67986;SDS011;54767;53.800;15.956;2023-06-22T08:02:54;3.50;;;3.20;;
67986;SDS011;54767;53.800;15.956;2023-06-22T08:05:23;4.70;;;3.20;;
67986;SDS011;54767;53.800;15.956;2023-06-22T08:07:51;4.50;;;3.50;;
67986;SDS011;54767;53.800;15.956;2023-06-22T08:10:21;3.30;;;3.00;;
67986;SDS011;54767;53.800;15.956;2023-06-22T08:12:49;5.90;;;3.50;;
67986;SDS011;54767;53.800;15.956;2023-06-22T08:15:19;4.60;;;3.40;;
67986;SDS011;54767;53.800;15.956;2023-06-22T08:17:48;4.70;;;3.40;;
67986;SDS011;54767;53.800;15.956;2023-06-22T08:20:16;4.30;;;3.50;;
67986;SDS011;54767;53.800;15.956;2023-06-22T08:22:45;5.00;;;3.60;;
67986;SDS011;54767;53.800;15.956;2023-06-22T08:25:13;3.80;;;3.50;;
67986;SDS011;54767;53.800;15.956;2023-06-22T08:27:44;5.70;;;3.40;;
67986;SDS011;54767;53.800;15.956;2023-06-22T08:30:15;3.90;;;3.20;;
67986;SDS011;54767;53.800;15.956;2023-06-22T08:32:46;3.50;;;3.20;;
67986;SDS011;54767;53.800;15.956;2023-06-22T08:35:14;5.10;;;3.20;;
67986;SDS011;54767;53.800;15.956;2023-06-22T08:37:43;4.10;;;3.40;;
67986;SDS011;54767;53.800;15.956;2023-06-22T08:40:20;3.90;;;3.50;;
67986;SDS011;54767;53.800;15.956;2023-06-22T08:42:49;4.30;;;3.20;;
67986;SDS011;54767;53.800;15.956;2023-06-22T08:45:18;5.60;;;3.50;;
67986;SDS011;54767;53.800;15.956;2023-06-22T08:47:46;3.70;;;3.40;;
67986;SDS011;54767;53.800;15.956;2023-06-22T08:50:15;4.80;;;3.40;;
67986;SDS011;54767;53.800;15.956;2023-06-22T08:52:43;4.90;;;3.50;;
67986;SDS011;54767;53.800;15.956;2023-06-22T08:55:14;3.70;;;2.90;;
67986;SDS011;54767;53.800;15.956;2023-06-22T08:57:43;4.80;;;3.00;;
67986;SDS011;54767;53.800;15.956;2023-06-22T09:00:12;4.00;;;3.50;;
67986;SDS011;54767;53.800;15.956;2023-06-22T09:02:46;4.00;;;3.20;;
67986;SDS011;54767;53.800;15.956;2023-06-22T09:05:15;4.20;;;3.00;;
67986;SDS011;54767;53.800;15.956;2023-06-22T09:07:44;3.60;;;2.90;;
67986;SDS011;54767;53.800;15.956;2023-06-22T09:10:12;4.20;;;3.00;;
67986;SDS011;54767;53.800;15.956;2023-06-22T09:12:41;5.00;;;3.20;;
67986;SDS011;54767;53.800;15.956;2023-06-22T09:15:10;3.90;;;3.10;;
67986;SDS011;54767;53.800;15.956;2023-06-22T09:17:43;3.40;;;3.10;;
67986;SDS011;54767;53.800;15.956;2023-06-22T09:20:12;4.10;;;2.90;;
67986;SDS011;54767;53.800;15.956;2023-06-22T09:22:41;3.00;;;2.60;;
67986;SDS011;54767;53.800;15.956;2023-06-22T09:25:09;2.80;;;2.60;;
67986;SDS011;54767;53.800;15.956;2023-06-22T09:27:38;3.00;;;2.60;;
67986;SDS011;54767;53.800;15.956;2023-06-22T09:30:06;3.30;;;3.00;;
67986;SDS011;54767;53.800;15.956;2023-06-22T09:32:36;4.10;;;3.00;;
67986;SDS011;54767;53.800;15.956;2023-06-22T09:35:04;3.60;;;3.20;;
67986;SDS011;54767;53.800;15.956;2023-06-22T09:37:34;3.40;;;2.80;;
67986;SDS011;54767;53.800;15.956;2023-06-22T09:40:04;4.50;;;3.10;;
67986;SDS011;54767;53.800;15.956;2023-06-22T09:42:38;6.00;;;2.80;;
67986;SDS011;54767;53.800;15.956;2023-06-22T09:45:07;4.20;;;2.90;;
67986;SDS011;54767;53.800;15.956;2023-06-22T09:47:36;3.30;;;2.60;;
67986;SDS011;54767;53.800;15.956;2023-06-22T09:50:05;3.40;;;2.80;;
67986;SDS011;54767;53.800;15.956;2023-06-22T09:52:34;3.40;;;2.60;;
67986;SDS011;54767;53.800;15.956;2023-06-22T09:55:15;3.10;;;2.80;;
67986;SDS011;54767;53.800;15.956;2023-06-22T09:57:45;4.30;;;2.90;;
67986;SDS011;54767;53.800;15.956;2023-06-22T10:00:14;3.20;;;2.90;;
67986;SDS011;54767;53.800;15.956;2023-06-22T10:02:46;4.30;;;2.80;;
67986;SDS011;54767;53.800;15.956;2023-06-22T10:05:15;3.40;;;2.70;;
67986;SDS011;54767;53.800;15.956;2023-06-22T10:07:43;3.70;;;2.80;;
67986;SDS011;54767;53.800;15.956;2023-06-22T10:10:12;3.90;;;3.10;;
67986;SDS011;54767;53.800;15.956;2023-06-22T10:12:42;3.30;;;2.70;;
67986;SDS011;54767;53.800;15.956;2023-06-22T10:15:14;4.00;;;2.70;;
67986;SDS011;54767;53.800;15.956;2023-06-22T10:17:43;3.70;;;2.60;;
67986;SDS011;54767;53.800;15.956;2023-06-22T10:20:12;2.80;;;2.60;;
67986;SDS011;54767;53.800;15.956;2023-06-22T10:22:41;6.00;;;2.60;;
67986;SDS011;54767;53.800;15.956;2023-06-22T10:25:12;4.40;;;2.50;;
67986;SDS011;54767;53.800;15.956;2023-06-22T10:27:41;3.20;;;2.50;;
67986;SDS011;54767;53.800;15.956;2023-06-22T10:30:09;2.50;;;2.30;;
67986;SDS011;54767;53.800;15.956;2023-06-22T10:32:42;3.90;;;2.60;;
67986;SDS011;54767;53.800;15.956;2023-06-22T10:35:11;3.00;;;2.70;;
67986;SDS011;54767;53.800;15.956;2023-06-22T10:37:45;5.00;;;2.60;;
67986;SDS011;54767;53.800;15.956;2023-06-22T10:40:15;3.20;;;2.50;;
67986;SDS011;54767;53.800;15.956;2023-06-22T10:42:45;3.80;;;2.50;;
67986;SDS011;54767;53.800;15.956;2023-06-22T10:45:13;3.40;;;2.90;;
67986;SDS011;54767;53.800;15.956;2023-06-22T10:47:41;3.20;;;2.60;;
67986;SDS011;54767;53.800;15.956;2023-06-22T10:50:13;3.20;;;2.70;;
67986;SDS011;54767;53.800;15.956;2023-06-22T10:52:41;3.00;;;2.70;;
67986;SDS011;54767;53.800;15.956;2023-06-22T10:55:10;4.10;;;3.00;;
67986;SDS011;54767;53.800;15.956;2023-06-22T10:57:38;4.80;;;3.00;;
67986;SDS011;54767;53.800;15.956;2023-06-22T11:00:11;4.70;;;2.80;;
67986;SDS011;54767;53.800;15.956;2023-06-22T11:02:44;2.90;;;2.70;;
67986;SDS011;54767;53.800;15.956;2023-06-22T11:05:13;3.70;;;2.60;;
67986;SDS011;54767;53.800;15.956;2023-06-22T11:07:42;2.50;;;2.30;;
67986;SDS011;54767;53.800;15.956;2023-06-22T11:10:16;3.50;;;2.70;;
67986;SDS011;54767;53.800;15.956;2023-06-22T11:12:45;4.30;;;2.90;;
67986;SDS011;54767;53.800;15.956;2023-06-22T11:15:13;2.90;;;2.60;;
67986;SDS011;54767;53.800;15.956;2023-06-22T11:17:42;3.10;;;2.80;;
67986;SDS011;54767;53.800;15.956;2023-06-22T11:20:11;2.90;;;2.50;;
67986;SDS011;54767;53.800;15.956;2023-06-22T11:22:40;4.50;;;2.60;;
67986;SDS011;54767;53.800;15.956;2023-06-22T11:25:09;2.70;;;2.50;;
67986;SDS011;54767;53.800;15.956;2023-06-22T11:27:39;3.60;;;2.70;;
67986;SDS011;54767;53.800;15.956;2023-06-22T11:30:08;3.70;;;2.60;;
67986;SDS011;54767;53.800;15.956;2023-06-22T11:35:06;4.30;;;2.70;;
67986;SDS011;54767;53.800;15.956;2023-06-22T11:37:35;2.60;;;2.40;;
67986;SDS011;54767;53.800;15.956;2023-06-22T11:40:03;2.50;;;2.30;;
67986;SDS011;54767;53.800;15.956;2023-06-22T11:42:35;3.10;;;2.40;;
67986;SDS011;54767;53.800;15.956;2023-06-22T11:45:04;2.50;;;2.30;;
67986;SDS011;54767;53.800;15.956;2023-06-22T11:47:33;2.90;;;2.50;;
67986;SDS011;54767;53.800;15.956;2023-06-22T11:50:02;2.40;;;2.10;;
67986;SDS011;54767;53.800;15.956;2023-06-22T11:52:31;4.40;;;2.50;;
67986;SDS011;54767;53.800;15.956;2023-06-22T11:55:01;4.00;;;2.60;;
67986;SDS011;54767;53.800;15.956;2023-06-22T11:57:33;2.40;;;2.20;;
67986;SDS011;54767;53.800;15.956;2023-06-22T12:00:07;2.30;;;2.10;;
67986;SDS011;54767;53.800;15.956;2023-06-22T12:02:44;3.00;;;2.50;;
67986;SDS011;54767;53.800;15.956;2023-06-22T12:05:15;3.50;;;2.60;;
67986;SDS011;54767;53.800;15.956;2023-06-22T12:07:44;3.00;;;2.40;;
67986;SDS011;54767;53.800;15.956;2023-06-22T12:10:42;3.80;;;2.40;;
67986;SDS011;54767;53.800;15.956;2023-06-22T12:13:11;2.90;;;2.40;;
67986;SDS011;54767;53.800;15.956;2023-06-22T12:15:39;2.40;;;2.20;;
67986;SDS011;54767;53.800;15.956;2023-06-22T12:18:07;2.80;;;2.60;;
67986;SDS011;54767;53.800;15.956;2023-06-22T12:20:37;3.10;;;2.40;;
67986;SDS011;54767;53.800;15.956;2023-06-22T12:23:05;2.30;;;2.10;;
67986;SDS011;54767;53.800;15.956;2023-06-22T12:25:33;3.70;;;2.70;;
67986;SDS011;54767;53.800;15.956;2023-06-22T12:28:02;2.70;;;2.30;;
67986;SDS011;54767;53.800;15.956;2023-06-22T12:30:33;2.50;;;2.30;;
67986;SDS011;54767;53.800;15.956;2023-06-22T12:33:01;2.40;;;2.20;;
67986;SDS011;54767;53.800;15.956;2023-06-22T12:35:30;3.80;;;2.00;;
67986;SDS011;54767;53.800;15.956;2023-06-22T12:37:58;1.80;;;1.70;;
67986;SDS011;54767;53.800;15.956;2023-06-22T12:40:27;2.70;;;2.00;;
67986;SDS011;54767;53.800;15.956;2023-06-22T12:42:56;2.60;;;2.10;;
67986;SDS011;54767;53.800;15.956;2023-06-22T12:45:24;41.90;;;18.20;;
67986;SDS011;54767;53.800;15.956;2023-06-22T12:47:56;5.10;;;3.00;;
67986;SDS011;54767;53.800;15.956;2023-06-22T12:50:25;2.60;;;2.40;;
67986;SDS011;54767;53.800;15.956;2023-06-22T12:52:55;2.80;;;2.30;;
67986;SDS011;54767;53.800;15.956;2023-06-22T12:55:23;2.50;;;2.30;;
67986;SDS011;54767;53.800;15.956;2023-06-22T12:57:51;2.40;;;2.00;;
67986;SDS011;54767;53.800;15.956;2023-06-22T13:00:20;2.40;;;2.10;;
67986;SDS011;54767;53.800;15.956;2023-06-22T13:02:49;2.70;;;2.10;;
67986;SDS011;54767;53.800;15.956;2023-06-22T13:05:17;2.80;;;2.30;;
67986;SDS011;54767;53.800;15.956;2023-06-22T13:07:45;2.30;;;2.10;;
67986;SDS011;54767;53.800;15.956;2023-06-22T13:10:17;3.60;;;1.90;;
67986;SDS011;54767;53.800;15.956;2023-06-22T13:12:46;3.30;;;2.40;;
67986;SDS011;54767;53.800;15.956;2023-06-22T13:15:14;2.30;;;2.20;;
67986;SDS011;54767;53.800;15.956;2023-06-22T13:17:43;2.60;;;2.10;;
67986;SDS011;54767;53.800;15.956;2023-06-22T13:20:11;2.70;;;2.20;;
67986;SDS011;54767;53.800;15.956;2023-06-22T13:22:39;4.90;;;2.20;;
67986;SDS011;54767;53.800;15.956;2023-06-22T13:25:11;3.10;;;2.30;;
67986;SDS011;54767;53.800;15.956;2023-06-22T13:27:41;2.50;;;2.30;;
67986;SDS011;54767;53.800;15.956;2023-06-22T13:30:10;2.50;;;2.00;;
67986;SDS011;54767;53.800;15.956;2023-06-22T13:32:42;2.30;;;2.10;;
67986;SDS011;54767;53.800;15.956;2023-06-22T13:35:11;3.10;;;2.20;;
67986;SDS011;54767;53.800;15.956;2023-06-22T13:37:40;2.00;;;1.80;;
67986;SDS011;54767;53.800;15.956;2023-06-22T13:40:09;2.70;;;2.10;;
67986;SDS011;54767;53.800;15.956;2023-06-22T13:42:37;3.10;;;2.10;;
67986;SDS011;54767;53.800;15.956;2023-06-22T13:45:06;3.30;;;2.10;;
67986;SDS011;54767;53.800;15.956;2023-06-22T13:47:36;3.80;;;2.10;;
67986;SDS011;54767;53.800;15.956;2023-06-22T13:50:05;2.70;;;2.30;;
67986;SDS011;54767;53.800;15.956;2023-06-22T13:52:34;2.60;;;2.20;;
67986;SDS011;54767;53.800;15.956;2023-06-22T13:55:02;2.40;;;2.00;;
67986;SDS011;54767;53.800;15.956;2023-06-22T13:57:31;2.40;;;2.20;;
67986;SDS011;54767;53.800;15.956;2023-06-22T13:59:59;2.50;;;2.10;;
67986;SDS011;54767;53.800;15.956;2023-06-22T14:02:28;2.70;;;2.30;;
67986;SDS011;54767;53.800;15.956;2023-06-22T14:04:56;3.20;;;2.10;;
67986;SDS011;54767;53.800;15.956;2023-06-22T14:07:25;2.60;;;2.10;;
67986;SDS011;54767;53.800;15.956;2023-06-22T14:09:53;5.10;;;2.20;;
67986;SDS011;54767;53.800;15.956;2023-06-22T14:12:22;2.50;;;2.30;;
67986;SDS011;54767;53.800;15.956;2023-06-22T14:14:50;3.40;;;2.20;;
67986;SDS011;54767;53.800;15.956;2023-06-22T14:17:18;3.80;;;2.30;;
67986;SDS011;54767;53.800;15.956;2023-06-22T14:19:51;4.30;;;2.60;;
67986;SDS011;54767;53.800;15.956;2023-06-22T14:22:20;2.40;;;2.20;;
67986;SDS011;54767;53.800;15.956;2023-06-22T14:24:50;3.00;;;2.10;;
67986;SDS011;54767;53.800;15.956;2023-06-22T14:27:18;2.20;;;1.90;;
67986;SDS011;54767;53.800;15.956;2023-06-22T14:29:46;2.90;;;2.60;;
67986;SDS011;54767;53.800;15.956;2023-06-22T14:32:15;3.10;;;2.40;;
67986;SDS011;54767;53.800;15.956;2023-06-22T14:34:43;3.50;;;3.00;;
67986;SDS011;54767;53.800;15.956;2023-06-22T14:37:11;3.40;;;2.80;;
67986;SDS011;54767;53.800;15.956;2023-06-22T14:39:43;2.80;;;2.60;;
67986;SDS011;54767;53.800;15.956;2023-06-22T14:42:11;3.00;;;2.60;;
67986;SDS011;54767;53.800;15.956;2023-06-22T14:44:39;3.70;;;3.10;;
67986;SDS011;54767;53.800;15.956;2023-06-22T14:47:08;5.90;;;5.40;;
67986;SDS011;54767;53.800;15.956;2023-06-22T14:49:37;10.50;;;9.70;;
67986;SDS011;54767;53.800;15.956;2023-06-22T14:54:34;4.30;;;3.50;;
67986;SDS011;54767;53.800;15.956;2023-06-22T14:57:02;4.20;;;3.70;;
67986;SDS011;54767;53.800;15.956;2023-06-22T14:59:30;3.90;;;2.60;;
67986;SDS011;54767;53.800;15.956;2023-06-22T15:01:59;3.50;;;3.20;;
67986;SDS011;54767;53.800;15.956;2023-06-22T15:04:27;5.80;;;4.60;;